Miedwie — C6XP5 — position and weather

sailwx.info

Track history (hours):
 
Tides and Currents Weather Stations Pressure Air Temp Water Temp Dewpoint Dewpoint Depression Visibility Wind Speed Wind Dir Waves Ship Positions

Miedwie

Last reported at 2018-May-27 01:30 UTC. Time now 2018-May-27 01:30 UTC.
Position N 56°03' E 016°43'.

Length 190 m; draft 6.5 m.

Type: Cargo ship. MMSI: 311018300.

Date/timePositionNaut miles runAvg speedWind from/ knotsBaromVisibWave heightAir tempDewpointWater temp
2018-May-27 01:30N 56°03' E 016°43'611.8
2018-May-27 01:00N 56°00' E 016°34'611.7
2018-May-27 00:30N 55°57' E 016°25'611.7
2018-May-27 00:00N 55°55' E 016°16'611.7
2018-May-26 23:30N 55°52' E 016°07'611.6
2018-May-26 23:00N 55°49' E 015°58'611.5
2018-May-26 22:30N 55°47' E 015°49'611.6
2018-May-26 22:00N 55°44' E 015°39'611.6
2018-May-26 21:30N 55°40' E 015°31'611.8
2018-May-26 21:00N 55°37' E 015°22'611.8
2018-May-26 20:30N 55°34' E 015°13'611.7
2018-May-26 20:00N 55°31' E 015°04'611.6
2018-May-26 19:30N 55°29' E 014°55'711.6
2018-May-26 18:52N 55°25' E 014°44'411.5
2018-May-26 18:30N 55°23' E 014°38'811.5
2018-May-26 17:51N 55°17' E 014°29'411.4
2018-May-26 17:28N 55°14' E 014°24'511.0
2018-May-26 17:00N 55°10' E 014°18'811.1
2018-May-26 16:16N 55°10' E 014°04'1310.7
2018-May-26 15:01N 55°10' E 013°40'510.8
2018-May-26 14:34N 55°11' E 013°32'411.0
2018-May-26 14:13N 55°11' E 013°25'211.3
2018-May-26 14:00N 55°11' E 013°21'711.7
2018-May-26 13:23N 55°12' E 013°08'511.6
2018-May-26 12:59N 55°13' E 013°00'611.6
2018-May-26 12:30N 55°15' E 012°51'611.6
2018-May-26 12:00N 55°17' E 012°42'4 9.0
2018-May-26 11:30N 55°21' E 012°39'611.5
2018-May-26 11:00N 55°27' E 012°41'510.9
2018-May-26 10:31N 55°32' E 012°46'510.1
2018-May-26 10:00N 55°36' E 012°51'510.2
2018-May-26 09:30N 55°40' E 012°56'611.7
2018-May-26 09:00N 55°45' E 012°50'611.0
2018-May-26 08:30N 55°49' E 012°44'611.5
2018-May-26 08:00N 55°54' E 012°39'611.1
2018-May-26 07:30N 55°60' E 012°40'4 8.2
2018-May-26 07:00N 56°04' E 012°38'4 8.6
2018-May-26 06:30N 56°07' E 012°32'4211.0
2018-May-26 02:43N 56°42' E 011°53'311.9
2018-May-26 02:28N 56°45' E 011°52'2311.8
2018-May-26 00:31N 57°07' E 011°37'111.6
2018-May-26 00:27N 57°08' E 011°37'511.7
2018-May-26 00:00N 57°13' E 011°34'611.3
2018-May-25 23:30N 57°18' E 011°29'510.7
2018-May-25 23:01N 57°23' E 011°26'510.8
2018-May-25 22:30N 57°28' E 011°22'510.6
2018-May-25 22:00N 57°32' E 011°15'510.6
2018-May-25 21:31N 57°35' E 011°08'510.8
2018-May-25 21:00N 57°39' E 011°00'611.3
2018-May-25 20:30N 57°43' E 010°53'611.3
2018-May-25 20:00N 57°46' E 010°45'611.3
2018-May-25 19:26N 57°47' E 010°33'511.6
2018-May-25 19:00N 57°48' E 010°24'711.9
2018-May-25 18:24N 57°48' E 010°10'1911.5
2018-May-25 16:47N 57°43' E 009°37'311.7
2018-May-25 16:30N 57°41' E 009°31'611.6
2018-May-25 16:00N 57°39' E 009°21'6211.4
2018-May-25 10:36N 57°08' E 007°42'110.8
2018-May-25 10:30N 57°07' E 007°40'710.5
2018-May-25 09:52N 57°04' E 007°30'26810.8
2018-May-24 08:59N 54°04' E 001°37'6210.1
2018-May-24 02:54N 53°33' E 000°07'4 9.4
2018-May-24 02:30N 53°35' E 000°01'510.6
2018-May-24 02:00N 53°37' W 000°07'4 8.3
2018-May-24 01:30N 53°40' W 000°13'4 9.0
2018-May-24 01:00N 53°44' W 000°16'1 1.1
2018-May-24 00:29N 53°44' W 000°16'0 0.1
2018-May-23 23:59N 53°45' W 000°16'0 0.2
2018-May-23 23:29N 53°45' W 000°16'0 0.2
2018-May-23 22:59N 53°45' W 000°16'0 0.0
2018-May-23 22:29N 53°45' W 000°16'0 0.0
2018-May-23 21:59N 53°45' W 000°16'0 0.0
2018-May-23 21:29N 53°45' W 000°16'0 0.0
2018-May-23 20:59N 53°45' W 000°16'0 0.0
2018-May-23 20:29N 53°45' W 000°16'0 0.0
2018-May-23 19:59N 53°45' W 000°16'0 0.0
2018-May-23 19:29N 53°45' W 000°16'0 0.0
2018-May-23 18:59N 53°45' W 000°16'0 0.0
2018-May-23 18:29N 53°45' W 000°16'0 0.0
2018-May-23 17:56N 53°45' W 000°16'0 0.0
2018-May-23 17:29N 53°45' W 000°16'0 0.0
2018-May-23 16:59N 53°45' W 000°16'0 0.0
2018-May-23 16:29N 53°45' W 000°16'0 0.0
2018-May-23 15:59N 53°45' W 000°16'0 0.0
2018-May-23 15:29N 53°45' W 000°16'0 0.0
2018-May-23 14:59N 53°45' W 000°16'0 0.0
2018-May-23 14:29N 53°45' W 000°16'0 0.0
2018-May-23 13:59N 53°45' W 000°16'0 0.0
2018-May-23 13:26N 53°45' W 000°16'0 0.0
2018-May-23 12:59N 53°45' W 000°16'0 0.0
2018-May-23 12:29N 53°45' W 000°16'0 0.0
2018-May-23 11:59N 53°45' W 000°16'0 0.0
2018-May-23 11:29N 53°45' W 000°16'0 0.0
2018-May-23 10:59N 53°45' W 000°16'0 0.0
2018-May-23 10:29N 53°45' W 000°16'0 0.0
2018-May-23 09:59N 53°45' W 000°16'0 0.0
2018-May-23 09:29N 53°45' W 000°16'0 0.0
2018-May-23 08:59N 53°45' W 000°16'0 0.0
2018-May-23 08:29N 53°45' W 000°16'0 0.0
2018-May-23 07:59N 53°45' W 000°16'0 0.0
2018-May-23 07:29N 53°45' W 000°16'0 0.0
2018-May-23 06:59N 53°45' W 000°16'0 0.0
2018-May-23 06:29N 53°45' W 000°16'0 0.0
2018-May-23 05:59N 53°45' W 000°16'0 0.0
2018-May-23 05:29N 53°45' W 000°16'0 0.0
2018-May-23 04:59N 53°45' W 000°16'0 0.0
2018-May-23 04:29N 53°45' W 000°16'0 0.0
2018-May-23 03:59N 53°45' W 000°16'0 0.0
2018-May-23 03:29N 53°45' W 000°16'0 0.0
2018-May-23 02:59N 53°45' W 000°16'0 0.0
2018-May-23 02:29N 53°45' W 000°16'0 0.0
2018-May-23 01:59N 53°45' W 000°16'0 0.0
2018-May-23 01:26N 53°45' W 000°16'0 0.0
2018-May-23 00:59N 53°45' W 000°16'0 0.0
2018-May-23 00:29N 53°45' W 000°16'0 0.0
2018-May-22 23:59N 53°45' W 000°16'0 0.0
2018-May-22 23:29N 53°45' W 000°16'0 0.0
2018-May-22 22:59N 53°45' W 000°16'0 0.0
2018-May-22 22:29N 53°45' W 000°16'0 0.0
2018-May-22 21:59N 53°45' W 000°16'0 0.0
2018-May-22 21:26N 53°45' W 000°16'0 0.0
2018-May-22 20:59N 53°45' W 000°16'0 0.0
2018-May-22 20:29N 53°45' W 000°16'0 0.0
2018-May-22 19:56N 53°45' W 000°16'0 0.0
2018-May-22 19:29N 53°45' W 000°16'0 0.0
2018-May-22 18:59N 53°45' W 000°16'0 0.0
2018-May-22 18:29N 53°45' W 000°16'0 0.0
2018-May-22 17:59N 53°45' W 000°16'0 0.0
2018-May-22 17:29N 53°45' W 000°16'0 0.0
2018-May-22 16:59N 53°45' W 000°16'0 0.0
2018-May-22 16:29N 53°45' W 000°16'0 0.0
2018-May-22 15:56N 53°45' W 000°16'0 0.0
2018-May-22 15:29N 53°45' W 000°16'0 0.0
2018-May-22 14:59N 53°45' W 000°16'0 0.0
2018-May-22 14:29N 53°45' W 000°16'0 0.0
2018-May-22 13:59N 53°45' W 000°16'0 0.0
2018-May-22 13:29N 53°45' W 000°16'0 0.0
2018-May-22 12:59N 53°45' W 000°16'0 0.0
2018-May-22 12:29N 53°45' W 000°16'0 0.0
2018-May-22 11:59N 53°45' W 000°16'0 0.0
2018-May-22 11:29N 53°45' W 000°16'0 0.0
2018-May-22 10:53N 53°45' W 000°16'0 0.0
2018-May-22 10:29N 53°45' W 000°16'0 0.0
2018-May-22 09:59N 53°45' W 000°16'0 0.0
2018-May-22 09:29N 53°45' W 000°16'0 0.0
2018-May-22 08:59N 53°45' W 000°16'0 0.0
2018-May-22 08:29N 53°45' W 000°16'0 0.0
2018-May-22 07:59N 53°45' W 000°16'0 0.0
2018-May-22 07:29N 53°45' W 000°16'0 0.0
2018-May-22 06:59N 53°45' W 000°16'0 0.0
2018-May-22 06:29N 53°45' W 000°16'0 0.0
2018-May-22 05:59N 53°45' W 000°16'0 0.0
2018-May-22 05:29N 53°45' W 000°16'0 0.0
2018-May-22 04:59N 53°45' W 000°16'0 0.0
2018-May-22 04:29N 53°45' W 000°16'0 0.1
2018-May-22 03:59N 53°45' W 000°16'0 0.0
2018-May-22 03:29N 53°45' W 000°16'0 0.0
2018-May-22 02:59N 53°45' W 000°16'0 0.0
2018-May-22 02:29N 53°45' W 000°16'0 0.0
2018-May-22 01:59N 53°45' W 000°16'0 0.0
2018-May-22 01:26N 53°45' W 000°16'0 0.0
2018-May-22 00:59N 53°45' W 000°16'0 0.0
2018-May-22 00:29N 53°45' W 000°16'0 0.0
2018-May-21 23:59N 53°45' W 000°16'0 0.0
2018-May-21 23:29N 53°45' W 000°16'0 0.0
2018-May-21 22:59N 53°45' W 000°16'0 0.0
2018-May-21 22:29N 53°45' W 000°16'0 0.0
2018-May-21 21:56N 53°45' W 000°16'0 0.0
2018-May-21 21:29N 53°45' W 000°16'0 0.0
2018-May-21 20:59N 53°45' W 000°16'0 0.0
2018-May-21 20:29N 53°45' W 000°16'0 0.0
2018-May-21 19:59N 53°45' W 000°16'0 0.0
2018-May-21 19:29N 53°45' W 000°16'0 0.0
2018-May-21 18:59N 53°45' W 000°16'0 0.0
2018-May-21 18:29N 53°45' W 000°16'0 0.0
2018-May-21 17:59N 53°45' W 000°16'0 0.0
2018-May-21 17:29N 53°45' W 000°16'0 0.0
2018-May-21 16:56N 53°45' W 000°16'0 0.0
2018-May-21 16:29N 53°45' W 000°16'0 0.0
2018-May-21 15:59N 53°45' W 000°16'0 0.0
2018-May-21 15:29N 53°45' W 000°16'0 0.0
2018-May-21 14:59N 53°45' W 000°16'0 0.0
2018-May-21 14:29N 53°45' W 000°16'0 0.0
2018-May-21 13:59N 53°45' W 000°16'0 0.0
2018-May-21 13:29N 53°45' W 000°16'0 0.0
2018-May-21 12:59N 53°45' W 000°16'0 0.0
2018-May-21 12:29N 53°45' W 000°16'0 0.0
2018-May-21 11:59N 53°45' W 000°16'0 0.0
2018-May-21 11:29N 53°45' W 000°16'0 0.0
2018-May-21 10:59N 53°45' W 000°16'0 0.0
2018-May-21 10:29N 53°45' W 000°16'0 0.0
2018-May-21 09:59N 53°45' W 000°16'0 0.0
2018-May-21 09:29N 53°45' W 000°16'0 0.0
2018-May-21 08:59N 53°45' W 000°16'0 0.0
2018-May-21 08:29N 53°45' W 000°16'0 0.0
2018-May-21 07:59N 53°45' W 000°16'0 0.0
2018-May-21 07:29N 53°45' W 000°16'0 0.0
2018-May-21 06:59N 53°45' W 000°16'0 0.0
2018-May-21 06:29N 53°45' W 000°16'0 0.0
2018-May-21 05:59N 53°45' W 000°16'0 0.0
2018-May-21 05:29N 53°45' W 000°16'0 0.0
2018-May-21 04:59N 53°45' W 000°16'0 0.0
2018-May-21 04:26N 53°45' W 000°16'0 0.0
2018-May-21 03:59N 53°45' W 000°16'0 0.0
2018-May-21 03:29N 53°45' W 000°16'0 0.0
2018-May-21 02:59N 53°45' W 000°16'0 0.0
2018-May-21 02:29N 53°45' W 000°16'0 0.0
2018-May-21 01:59N 53°45' W 000°16'0 0.0
2018-May-21 01:29N 53°45' W 000°16'0 0.0
2018-May-21 00:59N 53°45' W 000°16'0 0.0
2018-May-21 00:26N 53°45' W 000°16'0 0.0
2018-May-20 23:59N 53°45' W 000°16'0 0.0
2018-May-20 23:29N 53°45' W 000°16'0 0.0
2018-May-20 22:59N 53°45' W 000°16'0 0.0
2018-May-20 22:29N 53°45' W 000°16'0 0.0
2018-May-20 21:59N 53°45' W 000°16'0 0.0
2018-May-20 21:29N 53°45' W 000°16'0 0.0
2018-May-20 20:56N 53°45' W 000°16'0 0.0
2018-May-20 20:29N 53°45' W 000°16'0 0.0
2018-May-20 19:59N 53°45' W 000°16'0 0.0
2018-May-20 19:29N 53°45' W 000°16'0 0.0
2018-May-20 18:59N 53°45' W 000°16'0 0.0
2018-May-20 18:26N 53°45' W 000°16'0 0.0
2018-May-20 17:59N 53°45' W 000°16'0 0.0
2018-May-20 17:29N 53°45' W 000°16'0 0.0
2018-May-20 16:59N 53°45' W 000°16'0 0.0
2018-May-20 16:29N 53°45' W 000°16'0 0.0
2018-May-20 15:59N 53°45' W 000°16'0 0.0
2018-May-20 15:29N 53°45' W 000°16'0 0.0
2018-May-20 14:59N 53°45' W 000°16'0 0.0
2018-May-20 14:29N 53°45' W 000°16'0 0.0
2018-May-20 13:59N 53°45' W 000°16'0 0.0
2018-May-20 13:29N 53°45' W 000°16'0 0.0
2018-May-20 12:59N 53°45' W 000°16'0 0.0
2018-May-20 12:29N 53°45' W 000°16'0 0.0
2018-May-20 11:59N 53°45' W 000°16'0 0.0
2018-May-20 11:29N 53°45' W 000°16'0 0.0
2018-May-20 10:59N 53°45' W 000°16'0 0.0
2018-May-20 10:29N 53°45' W 000°16'0 0.0
2018-May-20 09:59N 53°45' W 000°16'0 0.0
2018-May-20 09:29N 53°45' W 000°16'0 0.0
2018-May-20 08:56N 53°45' W 000°16'0 0.0
2018-May-20 08:29N 53°45' W 000°16'0 0.0
2018-May-20 07:59N 53°45' W 000°16'0 0.0
2018-May-20 07:29N 53°45' W 000°16'0 0.0
2018-May-20 06:59N 53°45' W 000°16'0 0.0
2018-May-20 06:29N 53°45' W 000°16'0 0.0
2018-May-20 05:59N 53°45' W 000°16'0 0.0
2018-May-20 05:29N 53°45' W 000°16'0 0.0
2018-May-20 04:56N 53°45' W 000°16'0 0.0
2018-May-20 04:29N 53°45' W 000°16'0 0.0
2018-May-20 03:59N 53°45' W 000°16'0 0.0
2018-May-20 03:29N 53°45' W 000°16'0 0.0
2018-May-20 02:56N 53°45' W 000°16'0 0.0
2018-May-20 02:29N 53°45' W 000°16'0 0.0
2018-May-20 01:59N 53°45' W 000°16'0 0.0
2018-May-20 01:26N 53°45' W 000°16'0 0.0
2018-May-20 00:59N 53°45' W 000°16'0 0.0
2018-May-20 00:29N 53°45' W 000°16'0 0.0
2018-May-19 23:59N 53°45' W 000°16'0 0.0
2018-May-19 23:29N 53°45' W 000°16'0 0.0
2018-May-19 22:59N 53°45' W 000°16'0 0.0
2018-May-19 22:29N 53°45' W 000°16'0 0.0
2018-May-19 21:59N 53°45' W 000°16'0 0.0
2018-May-19 21:29N 53°45' W 000°16'0 0.0
2018-May-19 20:56N 53°45' W 000°16'0 0.0
2018-May-19 20:29N 53°45' W 000°16'0 0.0
2018-May-19 19:59N 53°45' W 000°16'0 0.0
2018-May-19 19:29N 53°45' W 000°16'0 0.0
2018-May-19 18:59N 53°45' W 000°16'0 0.0
2018-May-19 18:29N 53°45' W 000°16'0 0.0
2018-May-19 17:59N 53°45' W 000°16'0 0.0
2018-May-19 17:29N 53°45' W 000°16'0 0.0
2018-May-19 16:59N 53°45' W 000°16'0 0.0
2018-May-19 16:29N 53°45' W 000°16'0 0.0
2018-May-19 15:59N 53°45' W 000°16'0 0.0
2018-May-19 15:29N 53°45' W 000°16'0 0.0
2018-May-19 14:59N 53°45' W 000°16'0 0.0
2018-May-19 14:29N 53°45' W 000°16'0 0.0
2018-May-19 13:59N 53°45' W 000°16'0 0.0
2018-May-19 13:29N 53°45' W 000°16'0 0.0
2018-May-19 12:56N 53°45' W 000°16'0 0.0
2018-May-19 12:29N 53°45' W 000°16'0 0.0
2018-May-19 11:59N 53°45' W 000°16'0 0.0
2018-May-19 11:29N 53°45' W 000°16'0 0.0
2018-May-19 10:56N 53°45' W 000°16'0 0.0
2018-May-19 10:26N 53°45' W 000°16'0 0.0
2018-May-19 09:59N 53°45' W 000°16'0 0.0
2018-May-19 09:29N 53°45' W 000°16'0 0.0
2018-May-19 08:59N 53°45' W 000°16'0 0.0
2018-May-19 08:29N 53°45' W 000°16'0 0.0
2018-May-19 07:59N 53°45' W 000°16'0 0.0
2018-May-19 07:29N 53°45' W 000°16'0 0.0
2018-May-19 06:59N 53°45' W 000°16'0 0.0
2018-May-19 06:29N 53°45' W 000°16'0 0.0
2018-May-19 05:59N 53°45' W 000°16'0 0.0
2018-May-19 05:29N 53°45' W 000°16'0 0.0
2018-May-19 04:59N 53°45' W 000°16'0 0.0
2018-May-19 04:29N 53°45' W 000°16'0 0.0
2018-May-19 03:59N 53°45' W 000°16'0 0.0
2018-May-19 03:29N 53°45' W 000°16'0 0.0
2018-May-19 02:59N 53°45' W 000°16'0 0.0
2018-May-19 02:29N 53°45' W 000°16'0 0.0
2018-May-19 01:59N 53°45' W 000°16'0 0.0
2018-May-19 01:29N 53°45' W 000°16'0 0.0
2018-May-19 00:59N 53°45' W 000°16'0 0.0
2018-May-19 00:29N 53°45' W 000°16'0 0.0
2018-May-18 23:59N 53°45' W 000°16'0 0.0
2018-May-18 23:29N 53°45' W 000°16'0 0.0
2018-May-18 22:59N 53°45' W 000°16'0 0.0
2018-May-18 22:29N 53°45' W 000°16'0 0.0
2018-May-18 21:59N 53°45' W 000°16'0 0.0
2018-May-18 21:29N 53°45' W 000°16'0 0.0
2018-May-18 20:59N 53°45' W 000°16'0 0.0
2018-May-18 20:30N 53°45' W 000°16'0 0.9
2018-May-18 20:00N 53°44' W 000°17'1 1.9
2018-May-18 19:30N 53°44' W 000°16'3 5.7
2018-May-18 19:01N 53°41' W 000°13'4 7.0
2018-May-18 18:28N 53°38' W 000°10'510.8
2018-May-18 18:00N 53°37' W 000°02'611.6
2018-May-18 17:30N 53°34' E 000°07'32 4.1
2018-May-18 09:45N 53°28' E 000°60'1410.1
2018-May-18 08:19N 53°16' E 001°13'3 9.7
2018-May-18 08:00N 53°14' E 001°16'5 9.9
2018-May-18 07:30N 53°11' E 001°23'510.4
2018-May-18 07:00N 53°08' E 001°30'611.1
2018-May-18 06:30N 53°06' E 001°38'611.8
2018-May-18 06:00N 53°04' E 001°48'612.6
2018-May-18 05:30N 53°02' E 001°58'3512.1
2018-May-18 02:36N 52°39' E 002°42'112.7
2018-May-18 02:29N 52°38' E 002°42'612.5
2018-May-18 01:59N 52°31' E 002°42'611.8
2018-May-18 01:28N 52°25' E 002°42'511.1
2018-May-18 00:59N 52°20' E 002°42'5 9.4
2018-May-18 00:29N 52°15' E 002°42'610.2
2018-May-17 23:57N 52°10' E 002°41'510.0
2018-May-17 23:28N 52°05' E 002°40'5 9.9
2018-May-17 23:00N 52°01' E 002°40'6 9.8
2018-May-17 22:26N 51°55' E 002°41'4 9.0
2018-May-17 22:00N 51°52' E 002°38'5 9.5
2018-May-17 21:30N 51°47' E 002°35'5 9.4
2018-May-17 21:00N 51°43' E 002°32'5 9.4
2018-May-17 20:30N 51°40' E 002°27'6 9.7
2018-May-17 19:53N 51°35' E 002°20'410.2
2018-May-17 19:30N 51°32' E 002°16'510.6
2018-May-17 19:00N 51°27' E 002°13'510.7
2018-May-17 18:30N 51°22' E 002°10'510.9
2018-May-17 18:00N 51°17' E 002°06'510.8
2018-May-17 17:30N 51°13' E 002°02'510.9
2018-May-17 17:00N 51°10' E 001°54'611.2
2018-May-17 16:30N 51°07' E 001°46'611.9
2018-May-17 16:00N 51°03' E 001°40'712.5
2018-May-17 15:28N 50°58' E 001°32'3712.0
2018-May-17 12:23N 50°30' E 000°55'611.8
2018-May-17 11:52N 50°28' E 000°46'2313.1
2018-May-17 10:05N 50°22' E 000°11'114.1
2018-May-17 10:00N 50°22' E 000°09'714.0
2018-May-17 09:30N 50°20' W 000°02'713.9
2018-May-17 09:00N 50°18' W 000°12'713.8
2018-May-17 08:30N 50°16' W 000°22'713.7
2018-May-17 07:58N 50°14' W 000°33'613.3
2018-May-17 07:30N 50°12' W 000°43'612.8
2018-May-17 07:00N 50°11' W 000°52'612.0
2018-May-17 06:30N 50°10' W 001°02'611.2
2018-May-17 05:59N 50°08' W 001°10'510.2
2018-May-17 05:30N 50°07' W 001°18'5 9.3
2018-May-17 05:00N 50°06' W 001°25'4 8.7
2018-May-17 04:30N 50°05' W 001°31'4 7.9
2018-May-17 04:01N 50°04' W 001°37'4 7.2
2018-May-17 03:30N 50°03' W 001°43'4 7.0
2018-May-17 03:00N 50°02' W 001°48'3 6.9
2018-May-17 02:30N 50°01' W 001°53'3 6.9
2018-May-17 02:00N 49°60' W 001°58'3 7.0
2018-May-17 01:31N 49°59' W 002°04'  
Track history (hours):
 
Tides and Currents Weather Stations Pressure Air Temp Water Temp Dewpoint Dewpoint Depression Visibility Wind Speed Wind Dir Waves Ship Positions

Miedwie

Last reported at 2018-May-27 01:30 UTC. Time now 2018-May-27 01:30 UTC.
Position N 56°03' E 016°43'.

Length 190 m; draft 6.5 m.

Type: Cargo ship. MMSI: 311018300.

Date/timePositionNaut miles runAvg speedWind from/ knotsBaromVisibWave heightAir tempDewpointWater temp
2018-May-27 01:30N 56°03' E 016°43'611.8
2018-May-27 01:00N 56°00' E 016°34'611.7
2018-May-27 00:30N 55°57' E 016°25'611.7
2018-May-27 00:00N 55°55' E 016°16'611.7
2018-May-26 23:30N 55°52' E 016°07'611.6
2018-May-26 23:00N 55°49' E 015°58'611.5
2018-May-26 22:30N 55°47' E 015°49'611.6
2018-May-26 22:00N 55°44' E 015°39'611.6
2018-May-26 21:30N 55°40' E 015°31'611.8
2018-May-26 21:00N 55°37' E 015°22'611.8
2018-May-26 20:30N 55°34' E 015°13'611.7
2018-May-26 20:00N 55°31' E 015°04'611.6
2018-May-26 19:30N 55°29' E 014°55'711.6
2018-May-26 18:52N 55°25' E 014°44'411.5
2018-May-26 18:30N 55°23' E 014°38'811.5
2018-May-26 17:51N 55°17' E 014°29'411.4
2018-May-26 17:28N 55°14' E 014°24'511.0
2018-May-26 17:00N 55°10' E 014°18'811.1
2018-May-26 16:16N 55°10' E 014°04'1310.7
2018-May-26 15:01N 55°10' E 013°40'510.8
2018-May-26 14:34N 55°11' E 013°32'411.0
2018-May-26 14:13N 55°11' E 013°25'211.3
2018-May-26 14:00N 55°11' E 013°21'711.7
2018-May-26 13:23N 55°12' E 013°08'511.6
2018-May-26 12:59N 55°13' E 013°00'611.6
2018-May-26 12:30N 55°15' E 012°51'611.6
2018-May-26 12:00N 55°17' E 012°42'4 9.0
2018-May-26 11:30N 55°21' E 012°39'611.5
2018-May-26 11:00N 55°27' E 012°41'510.9
2018-May-26 10:31N 55°32' E 012°46'510.1
2018-May-26 10:00N 55°36' E 012°51'510.2
2018-May-26 09:30N 55°40' E 012°56'611.7
2018-May-26 09:00N 55°45' E 012°50'611.0
2018-May-26 08:30N 55°49' E 012°44'611.5
2018-May-26 08:00N 55°54' E 012°39'611.1
2018-May-26 07:30N 55°60' E 012°40'4 8.2
2018-May-26 07:00N 56°04' E 012°38'4 8.6
2018-May-26 06:30N 56°07' E 012°32'4211.0
2018-May-26 02:43N 56°42' E 011°53'311.9
2018-May-26 02:28N 56°45' E 011°52'2311.8
2018-May-26 00:31N 57°07' E 011°37'111.6
2018-May-26 00:27N 57°08' E 011°37'511.7
2018-May-26 00:00N 57°13' E 011°34'611.3
2018-May-25 23:30N 57°18' E 011°29'510.7
2018-May-25 23:01N 57°23' E 011°26'510.8
2018-May-25 22:30N 57°28' E 011°22'510.6
2018-May-25 22:00N 57°32' E 011°15'510.6
2018-May-25 21:31N 57°35' E 011°08'510.8
2018-May-25 21:00N 57°39' E 011°00'611.3
2018-May-25 20:30N 57°43' E 010°53'611.3
2018-May-25 20:00N 57°46' E 010°45'611.3
2018-May-25 19:26N 57°47' E 010°33'511.6
2018-May-25 19:00N 57°48' E 010°24'711.9
2018-May-25 18:24N 57°48' E 010°10'1911.5
2018-May-25 16:47N 57°43' E 009°37'311.7
2018-May-25 16:30N 57°41' E 009°31'611.6
2018-May-25 16:00N 57°39' E 009°21'6211.4
2018-May-25 10:36N 57°08' E 007°42'110.8
2018-May-25 10:30N 57°07' E 007°40'710.5
2018-May-25 09:52N 57°04' E 007°30'26810.8
2018-May-24 08:59N 54°04' E 001°37'6210.1
2018-May-24 02:54N 53°33' E 000°07'4 9.4
2018-May-24 02:30N 53°35' E 000°01'510.6
2018-May-24 02:00N 53°37' W 000°07'4 8.3
2018-May-24 01:30N 53°40' W 000°13'4 9.0
2018-May-24 01:00N 53°44' W 000°16'1 1.1
2018-May-24 00:29N 53°44' W 000°16'0 0.1
2018-May-23 23:59N 53°45' W 000°16'0 0.2
2018-May-23 23:29N 53°45' W 000°16'0 0.2
2018-May-23 22:59N 53°45' W 000°16'0 0.0
2018-May-23 22:29N 53°45' W 000°16'0 0.0
2018-May-23 21:59N 53°45' W 000°16'0 0.0
2018-May-23 21:29N 53°45' W 000°16'0 0.0
2018-May-23 20:59N 53°45' W 000°16'0 0.0
2018-May-23 20:29N 53°45' W 000°16'0 0.0
2018-May-23 19:59N 53°45' W 000°16'0 0.0
2018-May-23 19:29N 53°45' W 000°16'0 0.0
2018-May-23 18:59N 53°45' W 000°16'0 0.0
2018-May-23 18:29N 53°45' W 000°16'0 0.0
2018-May-23 17:56N 53°45' W 000°16'0 0.0
2018-May-23 17:29N 53°45' W 000°16'0 0.0
2018-May-23 16:59N 53°45' W 000°16'0 0.0
2018-May-23 16:29N 53°45' W 000°16'0 0.0
2018-May-23 15:59N 53°45' W 000°16'0 0.0
2018-May-23 15:29N 53°45' W 000°16'0 0.0
2018-May-23 14:59N 53°45' W 000°16'0 0.0
2018-May-23 14:29N 53°45' W 000°16'0 0.0
2018-May-23 13:59N 53°45' W 000°16'0 0.0
2018-May-23 13:26N 53°45' W 000°16'0 0.0
2018-May-23 12:59N 53°45' W 000°16'0 0.0
2018-May-23 12:29N 53°45' W 000°16'0 0.0
2018-May-23 11:59N 53°45' W 000°16'0 0.0
2018-May-23 11:29N 53°45' W 000°16'0 0.0
2018-May-23 10:59N 53°45' W 000°16'0 0.0
2018-May-23 10:29N 53°45' W 000°16'0 0.0
2018-May-23 09:59N 53°45' W 000°16'0 0.0
2018-May-23 09:29N 53°45' W 000°16'0 0.0
2018-May-23 08:59N 53°45' W 000°16'0 0.0
2018-May-23 08:29N 53°45' W 000°16'0 0.0
2018-May-23 07:59N 53°45' W 000°16'0 0.0
2018-May-23 07:29N 53°45' W 000°16'0 0.0
2018-May-23 06:59N 53°45' W 000°16'0 0.0
2018-May-23 06:29N 53°45' W 000°16'0 0.0
2018-May-23 05:59N 53°45' W 000°16'0 0.0
2018-May-23 05:29N 53°45' W 000°16'0 0.0
2018-May-23 04:59N 53°45' W 000°16'0 0.0
2018-May-23 04:29N 53°45' W 000°16'0 0.0
2018-May-23 03:59N 53°45' W 000°16'0 0.0
2018-May-23 03:29N 53°45' W 000°16'0 0.0
2018-May-23 02:59N 53°45' W 000°16'0 0.0
2018-May-23 02:29N 53°45' W 000°16'0 0.0
2018-May-23 01:59N 53°45' W 000°16'0 0.0
2018-May-23 01:26N 53°45' W 000°16'0 0.0
2018-May-23 00:59N 53°45' W 000°16'0 0.0
2018-May-23 00:29N 53°45' W 000°16'0 0.0
2018-May-22 23:59N 53°45' W 000°16'0 0.0
2018-May-22 23:29N 53°45' W 000°16'0 0.0
2018-May-22 22:59N 53°45' W 000°16'0 0.0
2018-May-22 22:29N 53°45' W 000°16'0 0.0
2018-May-22 21:59N 53°45' W 000°16'0 0.0
2018-May-22 21:26N 53°45' W 000°16'0 0.0
2018-May-22 20:59N 53°45' W 000°16'0 0.0
2018-May-22 20:29N 53°45' W 000°16'0 0.0
2018-May-22 19:56N 53°45' W 000°16'0 0.0
2018-May-22 19:29N 53°45' W 000°16'0 0.0
2018-May-22 18:59N 53°45' W 000°16'0 0.0
2018-May-22 18:29N 53°45' W 000°16'0 0.0
2018-May-22 17:59N 53°45' W 000°16'0 0.0
2018-May-22 17:29N 53°45' W 000°16'0 0.0
2018-May-22 16:59N 53°45' W 000°16'0 0.0
2018-May-22 16:29N 53°45' W 000°16'0 0.0
2018-May-22 15:56N 53°45' W 000°16'0 0.0
2018-May-22 15:29N 53°45' W 000°16'0 0.0
2018-May-22 14:59N 53°45' W 000°16'0 0.0
2018-May-22 14:29N 53°45' W 000°16'0 0.0
2018-May-22 13:59N 53°45' W 000°16'0 0.0
2018-May-22 13:29N 53°45' W 000°16'0 0.0
2018-May-22 12:59N 53°45' W 000°16'0 0.0
2018-May-22 12:29N 53°45' W 000°16'0 0.0
2018-May-22 11:59N 53°45' W 000°16'0 0.0
2018-May-22 11:29N 53°45' W 000°16'0 0.0
2018-May-22 10:53N 53°45' W 000°16'0 0.0
2018-May-22 10:29N 53°45' W 000°16'0 0.0
2018-May-22 09:59N 53°45' W 000°16'0 0.0
2018-May-22 09:29N 53°45' W 000°16'0 0.0
2018-May-22 08:59N 53°45' W 000°16'0 0.0
2018-May-22 08:29N 53°45' W 000°16'0 0.0
2018-May-22 07:59N 53°45' W 000°16'0 0.0
2018-May-22 07:29N 53°45' W 000°16'0 0.0
2018-May-22 06:59N 53°45' W 000°16'0 0.0
2018-May-22 06:29N 53°45' W 000°16'0 0.0
2018-May-22 05:59N 53°45' W 000°16'0 0.0
2018-May-22 05:29N 53°45' W 000°16'0 0.0
2018-May-22 04:59N 53°45' W 000°16'0 0.0
2018-May-22 04:29N 53°45' W 000°16'0 0.1
2018-May-22 03:59N 53°45' W 000°16'0 0.0
2018-May-22 03:29N 53°45' W 000°16'0 0.0
2018-May-22 02:59N 53°45' W 000°16'0 0.0
2018-May-22 02:29N 53°45' W 000°16'0 0.0
2018-May-22 01:59N 53°45' W 000°16'0 0.0
2018-May-22 01:26N 53°45' W 000°16'0 0.0
2018-May-22 00:59N 53°45' W 000°16'0 0.0
2018-May-22 00:29N 53°45' W 000°16'0 0.0
2018-May-21 23:59N 53°45' W 000°16'0 0.0
2018-May-21 23:29N 53°45' W 000°16'0 0.0
2018-May-21 22:59N 53°45' W 000°16'0 0.0
2018-May-21 22:29N 53°45' W 000°16'0 0.0
2018-May-21 21:56N 53°45' W 000°16'0 0.0
2018-May-21 21:29N 53°45' W 000°16'0 0.0
2018-May-21 20:59N 53°45' W 000°16'0 0.0
2018-May-21 20:29N 53°45' W 000°16'0 0.0
2018-May-21 19:59N 53°45' W 000°16'0 0.0
2018-May-21 19:29N 53°45' W 000°16'0 0.0
2018-May-21 18:59N 53°45' W 000°16'0 0.0
2018-May-21 18:29N 53°45' W 000°16'0 0.0
2018-May-21 17:59N 53°45' W 000°16'0 0.0
2018-May-21 17:29N 53°45' W 000°16'0 0.0
2018-May-21 16:56N 53°45' W 000°16'0 0.0
2018-May-21 16:29N 53°45' W 000°16'0 0.0
2018-May-21 15:59N 53°45' W 000°16'0 0.0
2018-May-21 15:29N 53°45' W 000°16'0 0.0
2018-May-21 14:59N 53°45' W 000°16'0 0.0
2018-May-21 14:29N 53°45' W 000°16'0 0.0
2018-May-21 13:59N 53°45' W 000°16'0 0.0
2018-May-21 13:29N 53°45' W 000°16'0 0.0
2018-May-21 12:59N 53°45' W 000°16'0 0.0
2018-May-21 12:29N 53°45' W 000°16'0 0.0
2018-May-21 11:59N 53°45' W 000°16'0 0.0
2018-May-21 11:29N 53°45' W 000°16'0 0.0
2018-May-21 10:59N 53°45' W 000°16'0 0.0
2018-May-21 10:29N 53°45' W 000°16'0 0.0
2018-May-21 09:59N 53°45' W 000°16'0 0.0
2018-May-21 09:29N 53°45' W 000°16'0 0.0
2018-May-21 08:59N 53°45' W 000°16'0 0.0
2018-May-21 08:29N 53°45' W 000°16'0 0.0
2018-May-21 07:59N 53°45' W 000°16'0 0.0
2018-May-21 07:29N 53°45' W 000°16'0 0.0
2018-May-21 06:59N 53°45' W 000°16'0 0.0
2018-May-21 06:29N 53°45' W 000°16'0 0.0
2018-May-21 05:59N 53°45' W 000°16'0 0.0
2018-May-21 05:29N 53°45' W 000°16'0 0.0
2018-May-21 04:59N 53°45' W 000°16'0 0.0
2018-May-21 04:26N 53°45' W 000°16'0 0.0
2018-May-21 03:59N 53°45' W 000°16'0 0.0
2018-May-21 03:29N 53°45' W 000°16'0 0.0
2018-May-21 02:59N 53°45' W 000°16'0 0.0
2018-May-21 02:29N 53°45' W 000°16'0 0.0
2018-May-21 01:59N 53°45' W 000°16'0 0.0
2018-May-21 01:29N 53°45' W 000°16'0 0.0
2018-May-21 00:59N 53°45' W 000°16'0 0.0
2018-May-21 00:26N 53°45' W 000°16'0 0.0
2018-May-20 23:59N 53°45' W 000°16'0 0.0
2018-May-20 23:29N 53°45' W 000°16'0 0.0
2018-May-20 22:59N 53°45' W 000°16'0 0.0
2018-May-20 22:29N 53°45' W 000°16'0 0.0
2018-May-20 21:59N 53°45' W 000°16'0 0.0
2018-May-20 21:29N 53°45' W 000°16'0 0.0
2018-May-20 20:56N 53°45' W 000°16'0 0.0
2018-May-20 20:29N 53°45' W 000°16'0 0.0
2018-May-20 19:59N 53°45' W 000°16'0 0.0
2018-May-20 19:29N 53°45' W 000°16'0 0.0
2018-May-20 18:59N 53°45' W 000°16'0 0.0
2018-May-20 18:26N 53°45' W 000°16'0 0.0
2018-May-20 17:59N 53°45' W 000°16'0 0.0
2018-May-20 17:29N 53°45' W 000°16'0 0.0
2018-May-20 16:59N 53°45' W 000°16'0 0.0
2018-May-20 16:29N 53°45' W 000°16'0 0.0
2018-May-20 15:59N 53°45' W 000°16'0 0.0
2018-May-20 15:29N 53°45' W 000°16'0 0.0
2018-May-20 14:59N 53°45' W 000°16'0 0.0
2018-May-20 14:29N 53°45' W 000°16'0 0.0
2018-May-20 13:59N 53°45' W 000°16'0 0.0
2018-May-20 13:29N 53°45' W 000°16'0 0.0
2018-May-20 12:59N 53°45' W 000°16'0 0.0
2018-May-20 12:29N 53°45' W 000°16'0 0.0
2018-May-20 11:59N 53°45' W 000°16'0 0.0
2018-May-20 11:29N 53°45' W 000°16'0 0.0
2018-May-20 10:59N 53°45' W 000°16'0 0.0
2018-May-20 10:29N 53°45' W 000°16'0 0.0
2018-May-20 09:59N 53°45' W 000°16'0 0.0
2018-May-20 09:29N 53°45' W 000°16'0 0.0
2018-May-20 08:56N 53°45' W 000°16'0 0.0
2018-May-20 08:29N 53°45' W 000°16'0 0.0
2018-May-20 07:59N 53°45' W 000°16'0 0.0
2018-May-20 07:29N 53°45' W 000°16'0 0.0
2018-May-20 06:59N 53°45' W 000°16'0 0.0
2018-May-20 06:29N 53°45' W 000°16'0 0.0
2018-May-20 05:59N 53°45' W 000°16'0 0.0
2018-May-20 05:29N 53°45' W 000°16'0 0.0
2018-May-20 04:56N 53°45' W 000°16'0 0.0
2018-May-20 04:29N 53°45' W 000°16'0 0.0
2018-May-20 03:59N 53°45' W 000°16'0 0.0
2018-May-20 03:29N 53°45' W 000°16'0 0.0
2018-May-20 02:56N 53°45' W 000°16'0 0.0
2018-May-20 02:29N 53°45' W 000°16'0 0.0
2018-May-20 01:59N 53°45' W 000°16'0 0.0
2018-May-20 01:26N 53°45' W 000°16'0 0.0
2018-May-20 00:59N 53°45' W 000°16'0 0.0
2018-May-20 00:29N 53°45' W 000°16'0 0.0
2018-May-19 23:59N 53°45' W 000°16'0 0.0
2018-May-19 23:29N 53°45' W 000°16'0 0.0
2018-May-19 22:59N 53°45' W 000°16'0 0.0
2018-May-19 22:29N 53°45' W 000°16'0 0.0
2018-May-19 21:59N 53°45' W 000°16'0 0.0
2018-May-19 21:29N 53°45' W 000°16'0 0.0
2018-May-19 20:56N 53°45' W 000°16'0 0.0
2018-May-19 20:29N 53°45' W 000°16'0 0.0
2018-May-19 19:59N 53°45' W 000°16'0 0.0
2018-May-19 19:29N 53°45' W 000°16'0 0.0
2018-May-19 18:59N 53°45' W 000°16'0 0.0
2018-May-19 18:29N 53°45' W 000°16'0 0.0
2018-May-19 17:59N 53°45' W 000°16'0 0.0
2018-May-19 17:29N 53°45' W 000°16'0 0.0
2018-May-19 16:59N 53°45' W 000°16'0 0.0
2018-May-19 16:29N 53°45' W 000°16'0 0.0
2018-May-19 15:59N 53°45' W 000°16'0 0.0
2018-May-19 15:29N 53°45' W 000°16'0 0.0
2018-May-19 14:59N 53°45' W 000°16'0 0.0
2018-May-19 14:29N 53°45' W 000°16'0 0.0
2018-May-19 13:59N 53°45' W 000°16'0 0.0
2018-May-19 13:29N 53°45' W 000°16'0 0.0
2018-May-19 12:56N 53°45' W 000°16'0 0.0
2018-May-19 12:29N 53°45' W 000°16'0 0.0
2018-May-19 11:59N 53°45' W 000°16'0 0.0
2018-May-19 11:29N 53°45' W 000°16'0 0.0
2018-May-19 10:56N 53°45' W 000°16'0 0.0
2018-May-19 10:26N 53°45' W 000°16'0 0.0
2018-May-19 09:59N 53°45' W 000°16'0 0.0
2018-May-19 09:29N 53°45' W 000°16'0 0.0
2018-May-19 08:59N 53°45' W 000°16'0 0.0
2018-May-19 08:29N 53°45' W 000°16'0 0.0
2018-May-19 07:59N 53°45' W 000°16'0 0.0
2018-May-19 07:29N 53°45' W 000°16'0 0.0
2018-May-19 06:59N 53°45' W 000°16'0 0.0
2018-May-19 06:29N 53°45' W 000°16'0 0.0
2018-May-19 05:59N 53°45' W 000°16'0 0.0
2018-May-19 05:29N 53°45' W 000°16'0 0.0
2018-May-19 04:59N 53°45' W 000°16'0 0.0
2018-May-19 04:29N 53°45' W 000°16'0 0.0
2018-May-19 03:59N 53°45' W 000°16'0 0.0
2018-May-19 03:29N 53°45' W 000°16'0 0.0
2018-May-19 02:59N 53°45' W 000°16'0 0.0
2018-May-19 02:29N 53°45' W 000°16'0 0.0
2018-May-19 01:59N 53°45' W 000°16'0 0.0
2018-May-19 01:29N 53°45' W 000°16'0 0.0
2018-May-19 00:59N 53°45' W 000°16'0 0.0
2018-May-19 00:29N 53°45' W 000°16'0 0.0
2018-May-18 23:59N 53°45' W 000°16'0 0.0
2018-May-18 23:29N 53°45' W 000°16'0 0.0
2018-May-18 22:59N 53°45' W 000°16'0 0.0
2018-May-18 22:29N 53°45' W 000°16'0 0.0
2018-May-18 21:59N 53°45' W 000°16'0 0.0
2018-May-18 21:29N 53°45' W 000°16'0 0.0
2018-May-18 20:59N 53°45' W 000°16'0 0.0
2018-May-18 20:30N 53°45' W 000°16'0 0.9
2018-May-18 20:00N 53°44' W 000°17'1 1.9
2018-May-18 19:30N 53°44' W 000°16'3 5.7
2018-May-18 19:01N 53°41' W 000°13'4 7.0
2018-May-18 18:28N 53°38' W 000°10'510.8
2018-May-18 18:00N 53°37' W 000°02'611.6
2018-May-18 17:30N 53°34' E 000°07'32 4.1
2018-May-18 09:45N 53°28' E 000°60'1410.1
2018-May-18 08:19N 53°16' E 001°13'3 9.7
2018-May-18 08:00N 53°14' E 001°16'5 9.9
2018-May-18 07:30N 53°11' E 001°23'510.4
2018-May-18 07:00N 53°08' E 001°30'611.1
2018-May-18 06:30N 53°06' E 001°38'611.8
2018-May-18 06:00N 53°04' E 001°48'612.6
2018-May-18 05:30N 53°02' E 001°58'3512.1
2018-May-18 02:36N 52°39' E 002°42'112.7
2018-May-18 02:29N 52°38' E 002°42'612.5
2018-May-18 01:59N 52°31' E 002°42'611.8
2018-May-18 01:28N 52°25' E 002°42'511.1
2018-May-18 00:59N 52°20' E 002°42'5 9.4
2018-May-18 00:29N 52°15' E 002°42'610.2
2018-May-17 23:57N 52°10' E 002°41'510.0
2018-May-17 23:28N 52°05' E 002°40'5 9.9
2018-May-17 23:00N 52°01' E 002°40'6 9.8
2018-May-17 22:26N 51°55' E 002°41'4 9.0
2018-May-17 22:00N 51°52' E 002°38'5 9.5
2018-May-17 21:30N 51°47' E 002°35'5 9.4
2018-May-17 21:00N 51°43' E 002°32'5 9.4
2018-May-17 20:30N 51°40' E 002°27'6 9.7
2018-May-17 19:53N 51°35' E 002°20'410.2
2018-May-17 19:30N 51°32' E 002°16'510.6
2018-May-17 19:00N 51°27' E 002°13'510.7
2018-May-17 18:30N 51°22' E 002°10'510.9
2018-May-17 18:00N 51°17' E 002°06'510.8
2018-May-17 17:30N 51°13' E 002°02'510.9
2018-May-17 17:00N 51°10' E 001°54'611.2
2018-May-17 16:30N 51°07' E 001°46'611.9
2018-May-17 16:00N 51°03' E 001°40'712.5
2018-May-17 15:28N 50°58' E 001°32'3712.0
2018-May-17 12:23N 50°30' E 000°55'611.8
2018-May-17 11:52N 50°28' E 000°46'2313.1
2018-May-17 10:05N 50°22' E 000°11'114.1
2018-May-17 10:00N 50°22' E 000°09'714.0
2018-May-17 09:30N 50°20' W 000°02'713.9
2018-May-17 09:00N 50°18' W 000°12'713.8
2018-May-17 08:30N 50°16' W 000°22'713.7
2018-May-17 07:58N 50°14' W 000°33'613.3
2018-May-17 07:30N 50°12' W 000°43'612.8
2018-May-17 07:00N 50°11' W 000°52'612.0
2018-May-17 06:30N 50°10' W 001°02'611.2
2018-May-17 05:59N 50°08' W 001°10'510.2
2018-May-17 05:30N 50°07' W 001°18'5 9.3
2018-May-17 05:00N 50°06' W 001°25'4 8.7
2018-May-17 04:30N 50°05' W 001°31'4 7.9
2018-May-17 04:01N 50°04' W 001°37'4 7.2
2018-May-17 03:30N 50°03' W 001°43'4 7.0
2018-May-17 03:00N 50°02' W 001°48'3 6.9
2018-May-17 02:30N 50°01' W 001°53'3 6.9
2018-May-17 02:00N 49°60' W 001°58'3 7.0
2018-May-17 01:31N 49°59' W 002°04'  

Dump ship's entire track history